sensor_id;sensor_type;location;lat;lon;timestamp;P1;durP1;ratioP1;P2;durP2;ratioP2
12556;SDS011;6344;49.932;8.308;2023-12-20T00:01:07;4.63;;;4.23;;
12556;SDS011;6344;49.932;8.308;2023-12-20T00:03:33;7.93;;;7.17;;
12556;SDS011;6344;49.932;8.308;2023-12-20T00:06:00;6.10;;;5.50;;
12556;SDS011;6344;49.932;8.308;2023-12-20T00:08:27;4.23;;;3.63;;
12556;SDS011;6344;49.932;8.308;2023-12-20T00:10:53;5.80;;;5.20;;
12556;SDS011;6344;49.932;8.308;2023-12-20T00:13:20;5.80;;;4.80;;
12556;SDS011;6344;49.932;8.308;2023-12-20T00:15:47;6.07;;;5.10;;
12556;SDS011;6344;49.932;8.308;2023-12-20T00:18:14;6.80;;;6.17;;
12556;SDS011;6344;49.932;8.308;2023-12-20T00:20:41;2.60;;;2.40;;
12556;SDS011;6344;49.932;8.308;2023-12-20T00:23:08;4.13;;;3.40;;
12556;SDS011;6344;49.932;8.308;2023-12-20T00:25:34;4.80;;;4.10;;
12556;SDS011;6344;49.932;8.308;2023-12-20T00:28:01;5.10;;;3.40;;
12556;SDS011;6344;49.932;8.308;2023-12-20T00:30:28;5.27;;;4.73;;
12556;SDS011;6344;49.932;8.308;2023-12-20T00:32:55;3.93;;;3.63;;
12556;SDS011;6344;49.932;8.308;2023-12-20T00:35:23;5.10;;;4.60;;
12556;SDS011;6344;49.932;8.308;2023-12-20T00:37:50;6.33;;;5.83;;
12556;SDS011;6344;49.932;8.308;2023-12-20T00:40:16;5.43;;;4.93;;
12556;SDS011;6344;49.932;8.308;2023-12-20T00:42:43;5.47;;;4.97;;
12556;SDS011;6344;49.932;8.308;2023-12-20T00:45:11;6.40;;;5.90;;
12556;SDS011;6344;49.932;8.308;2023-12-20T00:47:39;6.17;;;5.37;;
12556;SDS011;6344;49.932;8.308;2023-12-20T00:50:06;6.40;;;5.03;;
12556;SDS011;6344;49.932;8.308;2023-12-20T00:52:34;5.87;;;5.30;;
12556;SDS011;6344;49.932;8.308;2023-12-20T00:55:01;5.10;;;4.67;;
12556;SDS011;6344;49.932;8.308;2023-12-20T00:57:28;5.40;;;4.83;;
12556;SDS011;6344;49.932;8.308;2023-12-20T00:59:56;5.70;;;5.20;;
12556;SDS011;6344;49.932;8.308;2023-12-20T01:02:22;5.33;;;4.83;;
12556;SDS011;6344;49.932;8.308;2023-12-20T01:04:49;6.37;;;5.50;;
12556;SDS011;6344;49.932;8.308;2023-12-20T01:07:16;5.83;;;5.33;;
12556;SDS011;6344;49.932;8.308;2023-12-20T01:09:44;6.03;;;5.53;;
12556;SDS011;6344;49.932;8.308;2023-12-20T01:12:11;5.30;;;4.80;;
12556;SDS011;6344;49.932;8.308;2023-12-20T01:14:37;5.70;;;5.17;;
12556;SDS011;6344;49.932;8.308;2023-12-20T01:17:04;5.43;;;4.93;;
12556;SDS011;6344;49.932;8.308;2023-12-20T01:19:31;5.33;;;4.93;;
12556;SDS011;6344;49.932;8.308;2023-12-20T01:21:57;5.70;;;5.17;;
12556;SDS011;6344;49.932;8.308;2023-12-20T01:24:24;5.07;;;4.57;;
12556;SDS011;6344;49.932;8.308;2023-12-20T01:26:52;5.27;;;4.43;;
12556;SDS011;6344;49.932;8.308;2023-12-20T01:29:18;5.50;;;5.00;;
12556;SDS011;6344;49.932;8.308;2023-12-20T01:31:45;5.50;;;5.00;;
12556;SDS011;6344;49.932;8.308;2023-12-20T01:34:12;5.47;;;4.83;;
12556;SDS011;6344;49.932;8.308;2023-12-20T01:36:38;4.27;;;3.83;;
12556;SDS011;6344;49.932;8.308;2023-12-20T01:39:05;4.83;;;4.33;;
12556;SDS011;6344;49.932;8.308;2023-12-20T01:41:32;4.40;;;4.10;;
12556;SDS011;6344;49.932;8.308;2023-12-20T01:44:00;5.37;;;4.63;;
12556;SDS011;6344;49.932;8.308;2023-12-20T01:46:26;3.67;;;3.33;;
12556;SDS011;6344;49.932;8.308;2023-12-20T01:48:53;3.90;;;3.60;;
12556;SDS011;6344;49.932;8.308;2023-12-20T01:51:20;3.53;;;3.23;;
12556;SDS011;6344;49.932;8.308;2023-12-20T01:53:47;4.27;;;3.90;;
12556;SDS011;6344;49.932;8.308;2023-12-20T01:56:14;4.50;;;4.10;;
12556;SDS011;6344;49.932;8.308;2023-12-20T01:58:43;5.43;;;3.63;;
12556;SDS011;6344;49.932;8.308;2023-12-20T02:01:12;4.40;;;4.00;;
12556;SDS011;6344;49.932;8.308;2023-12-20T02:03:39;3.47;;;3.17;;
12556;SDS011;6344;49.932;8.308;2023-12-20T02:06:07;3.87;;;3.57;;
12556;SDS011;6344;49.932;8.308;2023-12-20T02:08:33;4.53;;;4.20;;
12556;SDS011;6344;49.932;8.308;2023-12-20T02:11:00;4.80;;;3.50;;
12556;SDS011;6344;49.932;8.308;2023-12-20T02:13:27;4.30;;;3.90;;
12556;SDS011;6344;49.932;8.308;2023-12-20T02:15:54;3.67;;;3.37;;
12556;SDS011;6344;49.932;8.308;2023-12-20T02:18:22;4.17;;;3.87;;
12556;SDS011;6344;49.932;8.308;2023-12-20T02:20:49;3.80;;;3.50;;
12556;SDS011;6344;49.932;8.308;2023-12-20T02:23:17;3.57;;;3.27;;
12556;SDS011;6344;49.932;8.308;2023-12-20T02:25:43;2.90;;;2.70;;
12556;SDS011;6344;49.932;8.308;2023-12-20T02:28:10;3.23;;;2.93;;
12556;SDS011;6344;49.932;8.308;2023-12-20T02:30:37;3.23;;;2.90;;
12556;SDS011;6344;49.932;8.308;2023-12-20T02:33:04;4.03;;;3.63;;
12556;SDS011;6344;49.932;8.308;2023-12-20T02:35:36;3.40;;;3.20;;
12556;SDS011;6344;49.932;8.308;2023-12-20T02:38:03;3.60;;;3.30;;
12556;SDS011;6344;49.932;8.308;2023-12-20T02:40:31;2.97;;;2.73;;
12556;SDS011;6344;49.932;8.308;2023-12-20T02:42:57;4.97;;;4.57;;
12556;SDS011;6344;49.932;8.308;2023-12-20T02:45:24;3.17;;;2.87;;
12556;SDS011;6344;49.932;8.308;2023-12-20T02:47:51;3.23;;;2.93;;
12556;SDS011;6344;49.932;8.308;2023-12-20T02:50:18;3.67;;;3.37;;
12556;SDS011;6344;49.932;8.308;2023-12-20T02:52:44;2.90;;;2.67;;
12556;SDS011;6344;49.932;8.308;2023-12-20T02:55:11;3.33;;;3.03;;
12556;SDS011;6344;49.932;8.308;2023-12-20T02:57:39;3.00;;;2.70;;
12556;SDS011;6344;49.932;8.308;2023-12-20T03:00:07;3.03;;;2.73;;
12556;SDS011;6344;49.932;8.308;2023-12-20T03:02:34;3.70;;;3.40;;
12556;SDS011;6344;49.932;8.308;2023-12-20T03:05:01;2.70;;;2.50;;
12556;SDS011;6344;49.932;8.308;2023-12-20T03:07:28;2.50;;;2.30;;
12556;SDS011;6344;49.932;8.308;2023-12-20T03:09:54;2.37;;;2.17;;
12556;SDS011;6344;49.932;8.308;2023-12-20T03:12:21;2.70;;;2.50;;
12556;SDS011;6344;49.932;8.308;2023-12-20T03:14:49;2.60;;;2.40;;
12556;SDS011;6344;49.932;8.308;2023-12-20T03:17:16;2.17;;;2.07;;
12556;SDS011;6344;49.932;8.308;2023-12-20T03:19:42;2.23;;;2.00;;
12556;SDS011;6344;49.932;8.308;2023-12-20T03:22:09;2.47;;;2.27;;
12556;SDS011;6344;49.932;8.308;2023-12-20T03:24:35;2.50;;;2.30;;
12556;SDS011;6344;49.932;8.308;2023-12-20T03:27:03;2.70;;;2.50;;
12556;SDS011;6344;49.932;8.308;2023-12-20T03:29:29;2.47;;;2.27;;
12556;SDS011;6344;49.932;8.308;2023-12-20T03:31:57;1.83;;;1.70;;
12556;SDS011;6344;49.932;8.308;2023-12-20T03:34:24;2.47;;;2.27;;
12556;SDS011;6344;49.932;8.308;2023-12-20T03:36:51;2.43;;;2.23;;
12556;SDS011;6344;49.932;8.308;2023-12-20T03:39:17;2.40;;;2.20;;
12556;SDS011;6344;49.932;8.308;2023-12-20T03:41:44;2.50;;;2.30;;
12556;SDS011;6344;49.932;8.308;2023-12-20T03:44:11;2.37;;;2.17;;
12556;SDS011;6344;49.932;8.308;2023-12-20T03:46:37;2.37;;;2.07;;
12556;SDS011;6344;49.932;8.308;2023-12-20T03:49:05;2.30;;;2.10;;
12556;SDS011;6344;49.932;8.308;2023-12-20T03:51:32;2.50;;;2.03;;
12556;SDS011;6344;49.932;8.308;2023-12-20T03:53:58;2.80;;;2.50;;
12556;SDS011;6344;49.932;8.308;2023-12-20T03:56:25;1.93;;;1.83;;
12556;SDS011;6344;49.932;8.308;2023-12-20T03:58:52;1.97;;;1.80;;
12556;SDS011;6344;49.932;8.308;2023-12-20T04:01:18;1.93;;;1.83;;
12556;SDS011;6344;49.932;8.308;2023-12-20T04:03:45;1.77;;;1.67;;
12556;SDS011;6344;49.932;8.308;2023-12-20T04:06:17;2.43;;;1.80;;
12556;SDS011;6344;49.932;8.308;2023-12-20T04:08:43;1.77;;;1.67;;
12556;SDS011;6344;49.932;8.308;2023-12-20T04:11:10;2.10;;;1.90;;
12556;SDS011;6344;49.932;8.308;2023-12-20T04:13:37;1.80;;;1.70;;
12556;SDS011;6344;49.932;8.308;2023-12-20T04:16:03;2.50;;;2.30;;
12556;SDS011;6344;49.932;8.308;2023-12-20T04:18:30;1.97;;;1.87;;
12556;SDS011;6344;49.932;8.308;2023-12-20T04:20:57;2.13;;;2.03;;
12556;SDS011;6344;49.932;8.308;2023-12-20T04:23:26;2.57;;;2.37;;
12556;SDS011;6344;49.932;8.308;2023-12-20T04:25:52;2.80;;;2.60;;
12556;SDS011;6344;49.932;8.308;2023-12-20T04:28:20;2.30;;;2.20;;
12556;SDS011;6344;49.932;8.308;2023-12-20T04:30:46;2.80;;;2.60;;
12556;SDS011;6344;49.932;8.308;2023-12-20T04:33:13;2.40;;;2.20;;
12556;SDS011;6344;49.932;8.308;2023-12-20T04:35:40;2.63;;;2.43;;
12556;SDS011;6344;49.932;8.308;2023-12-20T04:38:07;2.23;;;2.03;;
12556;SDS011;6344;49.932;8.308;2023-12-20T04:40:35;2.60;;;2.23;;
12556;SDS011;6344;49.932;8.308;2023-12-20T04:43:02;2.70;;;2.50;;
12556;SDS011;6344;49.932;8.308;2023-12-20T04:45:29;1.77;;;1.67;;
12556;SDS011;6344;49.932;8.308;2023-12-20T04:47:56;2.30;;;2.10;;
12556;SDS011;6344;49.932;8.308;2023-12-20T04:50:22;2.30;;;2.10;;
12556;SDS011;6344;49.932;8.308;2023-12-20T04:52:49;2.73;;;2.50;;
12556;SDS011;6344;49.932;8.308;2023-12-20T04:55:16;2.70;;;2.50;;
12556;SDS011;6344;49.932;8.308;2023-12-20T04:57:44;3.00;;;2.80;;
12556;SDS011;6344;49.932;8.308;2023-12-20T05:00:11;2.40;;;2.20;;
12556;SDS011;6344;49.932;8.308;2023-12-20T05:02:40;3.30;;;3.10;;
12556;SDS011;6344;49.932;8.308;2023-12-20T05:05:07;3.33;;;3.00;;
12556;SDS011;6344;49.932;8.308;2023-12-20T05:07:34;3.40;;;2.60;;
12556;SDS011;6344;49.932;8.308;2023-12-20T05:10:01;6.23;;;2.73;;
12556;SDS011;6344;49.932;8.308;2023-12-20T05:12:29;4.00;;;2.53;;
12556;SDS011;6344;49.932;8.308;2023-12-20T05:14:57;2.87;;;2.67;;
12556;SDS011;6344;49.932;8.308;2023-12-20T05:17:24;2.70;;;2.50;;
12556;SDS011;6344;49.932;8.308;2023-12-20T05:19:51;2.47;;;2.27;;
12556;SDS011;6344;49.932;8.308;2023-12-20T05:22:17;3.03;;;2.50;;
12556;SDS011;6344;49.932;8.308;2023-12-20T05:24:45;3.37;;;2.40;;
12556;SDS011;6344;49.932;8.308;2023-12-20T05:27:12;2.80;;;2.07;;
12556;SDS011;6344;49.932;8.308;2023-12-20T05:29:38;3.40;;;2.70;;
12556;SDS011;6344;49.932;8.308;2023-12-20T05:32:06;3.93;;;3.00;;
12556;SDS011;6344;49.932;8.308;2023-12-20T05:34:33;6.07;;;1.97;;
12556;SDS011;6344;49.932;8.308;2023-12-20T05:37:00;4.70;;;2.23;;
12556;SDS011;6344;49.932;8.308;2023-12-20T05:39:27;3.73;;;2.83;;
12556;SDS011;6344;49.932;8.308;2023-12-20T05:41:55;3.17;;;2.37;;
12556;SDS011;6344;49.932;8.308;2023-12-20T05:44:22;3.00;;;2.47;;
12556;SDS011;6344;49.932;8.308;2023-12-20T05:46:49;4.17;;;2.67;;
12556;SDS011;6344;49.932;8.308;2023-12-20T05:49:17;3.10;;;2.03;;
12556;SDS011;6344;49.932;8.308;2023-12-20T05:51:44;3.00;;;2.70;;
12556;SDS011;6344;49.932;8.308;2023-12-20T05:54:10;5.93;;;2.77;;
12556;SDS011;6344;49.932;8.308;2023-12-20T05:56:37;3.90;;;2.70;;
12556;SDS011;6344;49.932;8.308;2023-12-20T05:59:04;4.87;;;2.70;;
12556;SDS011;6344;49.932;8.308;2023-12-20T06:01:30;2.67;;;2.47;;
12556;SDS011;6344;49.932;8.308;2023-12-20T06:03:57;2.50;;;2.30;;
12556;SDS011;6344;49.932;8.308;2023-12-20T06:06:25;4.27;;;2.50;;
12556;SDS011;6344;49.932;8.308;2023-12-20T06:08:52;3.73;;;2.83;;
12556;SDS011;6344;49.932;8.308;2023-12-20T06:11:18;2.80;;;2.60;;
12556;SDS011;6344;49.932;8.308;2023-12-20T06:13:45;3.33;;;2.60;;
12556;SDS011;6344;49.932;8.308;2023-12-20T06:16:11;3.57;;;3.27;;
12556;SDS011;6344;49.932;8.308;2023-12-20T06:18:38;4.10;;;2.93;;
12556;SDS011;6344;49.932;8.308;2023-12-20T06:21:05;3.03;;;2.83;;
12556;SDS011;6344;49.932;8.308;2023-12-20T06:23:34;3.80;;;3.20;;
12556;SDS011;6344;49.932;8.308;2023-12-20T06:26:01;4.63;;;3.30;;
12556;SDS011;6344;49.932;8.308;2023-12-20T06:28:27;5.00;;;2.43;;
12556;SDS011;6344;49.932;8.308;2023-12-20T06:30:54;3.57;;;3.33;;
12556;SDS011;6344;49.932;8.308;2023-12-20T06:33:22;3.60;;;2.97;;
12556;SDS011;6344;49.932;8.308;2023-12-20T06:35:49;3.70;;;2.70;;
12556;SDS011;6344;49.932;8.308;2023-12-20T06:38:15;6.80;;;3.07;;
12556;SDS011;6344;49.932;8.308;2023-12-20T06:40:45;2.47;;;2.13;;
12556;SDS011;6344;49.932;8.308;2023-12-20T06:43:11;6.70;;;3.70;;
12556;SDS011;6344;49.932;8.308;2023-12-20T06:45:38;4.87;;;3.17;;
12556;SDS011;6344;49.932;8.308;2023-12-20T06:48:05;2.70;;;2.37;;
12556;SDS011;6344;49.932;8.308;2023-12-20T06:50:32;3.40;;;2.50;;
12556;SDS011;6344;49.932;8.308;2023-12-20T06:52:59;4.47;;;2.50;;
12556;SDS011;6344;49.932;8.308;2023-12-20T06:55:31;6.50;;;3.20;;
12556;SDS011;6344;49.932;8.308;2023-12-20T06:58:00;8.20;;;3.17;;
12556;SDS011;6344;49.932;8.308;2023-12-20T07:00:26;6.70;;;3.77;;
12556;SDS011;6344;49.932;8.308;2023-12-20T07:02:53;4.10;;;3.20;;
12556;SDS011;6344;49.932;8.308;2023-12-20T07:05:20;3.40;;;3.10;;
12556;SDS011;6344;49.932;8.308;2023-12-20T07:07:47;5.03;;;3.80;;
12556;SDS011;6344;49.932;8.308;2023-12-20T07:10:14;3.73;;;3.00;;
12556;SDS011;6344;49.932;8.308;2023-12-20T07:12:40;4.73;;;2.93;;
12556;SDS011;6344;49.932;8.308;2023-12-20T07:15:09;6.27;;;3.57;;
12556;SDS011;6344;49.932;8.308;2023-12-20T07:17:36;4.30;;;2.87;;
12556;SDS011;6344;49.932;8.308;2023-12-20T07:20:03;3.23;;;2.70;;
12556;SDS011;6344;49.932;8.308;2023-12-20T07:22:33;7.53;;;2.50;;
12556;SDS011;6344;49.932;8.308;2023-12-20T07:24:59;3.00;;;2.70;;
12556;SDS011;6344;49.932;8.308;2023-12-20T07:27:26;3.17;;;2.80;;
12556;SDS011;6344;49.932;8.308;2023-12-20T07:29:53;1.83;;;1.73;;
12556;SDS011;6344;49.932;8.308;2023-12-20T07:32:21;6.70;;;3.27;;
12556;SDS011;6344;49.932;8.308;2023-12-20T07:34:47;7.10;;;2.33;;
12556;SDS011;6344;49.932;8.308;2023-12-20T07:37:14;5.63;;;2.10;;
12556;SDS011;6344;49.932;8.308;2023-12-20T07:39:41;4.60;;;2.43;;
12556;SDS011;6344;49.932;8.308;2023-12-20T07:42:08;3.93;;;2.33;;
12556;SDS011;6344;49.932;8.308;2023-12-20T07:44:35;2.73;;;1.87;;
12556;SDS011;6344;49.932;8.308;2023-12-20T07:47:01;6.77;;;2.10;;
12556;SDS011;6344;49.932;8.308;2023-12-20T07:49:29;3.63;;;1.93;;
12556;SDS011;6344;49.932;8.308;2023-12-20T07:51:56;7.07;;;2.70;;
12556;SDS011;6344;49.932;8.308;2023-12-20T07:54:23;4.30;;;2.83;;
12556;SDS011;6344;49.932;8.308;2023-12-20T07:56:50;3.83;;;1.50;;
12556;SDS011;6344;49.932;8.308;2023-12-20T07:59:16;3.83;;;1.83;;
12556;SDS011;6344;49.932;8.308;2023-12-20T08:01:43;4.90;;;2.30;;
12556;SDS011;6344;49.932;8.308;2023-12-20T08:04:10;2.10;;;1.90;;
12556;SDS011;6344;49.932;8.308;2023-12-20T08:06:38;3.17;;;2.00;;
12556;SDS011;6344;49.932;8.308;2023-12-20T08:09:04;4.60;;;2.50;;
12556;SDS011;6344;49.932;8.308;2023-12-20T08:11:31;10.60;;;2.17;;
12556;SDS011;6344;49.932;8.308;2023-12-20T08:13:58;4.03;;;2.23;;
12556;SDS011;6344;49.932;8.308;2023-12-20T08:16:25;3.67;;;2.70;;
12556;SDS011;6344;49.932;8.308;2023-12-20T08:18:51;8.40;;;3.70;;
12556;SDS011;6344;49.932;8.308;2023-12-20T08:21:18;7.87;;;2.77;;
12556;SDS011;6344;49.932;8.308;2023-12-20T08:23:48;5.27;;;2.53;;
12556;SDS011;6344;49.932;8.308;2023-12-20T08:26:18;19.63;;;2.10;;
12556;SDS011;6344;49.932;8.308;2023-12-20T08:28:46;3.40;;;1.60;;
12556;SDS011;6344;49.932;8.308;2023-12-20T08:31:13;2.20;;;2.00;;
12556;SDS011;6344;49.932;8.308;2023-12-20T08:33:41;4.77;;;2.80;;
12556;SDS011;6344;49.932;8.308;2023-12-20T08:36:09;3.43;;;2.50;;
12556;SDS011;6344;49.932;8.308;2023-12-20T08:38:35;3.27;;;2.20;;
12556;SDS011;6344;49.932;8.308;2023-12-20T08:41:03;2.60;;;2.40;;
12556;SDS011;6344;49.932;8.308;2023-12-20T08:43:31;3.37;;;3.07;;
12556;SDS011;6344;49.932;8.308;2023-12-20T08:45:57;3.97;;;3.00;;
12556;SDS011;6344;49.932;8.308;2023-12-20T08:48:24;1.97;;;1.63;;
12556;SDS011;6344;49.932;8.308;2023-12-20T08:50:51;5.10;;;2.70;;
12556;SDS011;6344;49.932;8.308;2023-12-20T08:53:17;4.50;;;2.43;;
12556;SDS011;6344;49.932;8.308;2023-12-20T08:55:44;4.00;;;3.10;;
12556;SDS011;6344;49.932;8.308;2023-12-20T08:58:13;7.30;;;3.00;;
12556;SDS011;6344;49.932;8.308;2023-12-20T09:00:39;3.33;;;3.03;;
12556;SDS011;6344;49.932;8.308;2023-12-20T09:03:06;4.83;;;2.20;;
12556;SDS011;6344;49.932;8.308;2023-12-20T09:05:33;3.07;;;1.70;;
12556;SDS011;6344;49.932;8.308;2023-12-20T09:08:00;4.87;;;2.67;;
12556;SDS011;6344;49.932;8.308;2023-12-20T09:10:26;6.87;;;2.40;;
12556;SDS011;6344;49.932;8.308;2023-12-20T09:12:53;4.60;;;2.50;;
12556;SDS011;6344;49.932;8.308;2023-12-20T09:15:23;2.50;;;2.30;;
12556;SDS011;6344;49.932;8.308;2023-12-20T09:17:50;4.23;;;3.03;;
12556;SDS011;6344;49.932;8.308;2023-12-20T09:20:17;4.50;;;2.20;;
12556;SDS011;6344;49.932;8.308;2023-12-20T09:22:43;6.80;;;3.10;;
12556;SDS011;6344;49.932;8.308;2023-12-20T09:25:10;2.83;;;2.63;;
12556;SDS011;6344;49.932;8.308;2023-12-20T09:27:37;3.70;;;2.37;;
12556;SDS011;6344;49.932;8.308;2023-12-20T09:30:04;5.40;;;2.33;;
12556;SDS011;6344;49.932;8.308;2023-12-20T09:32:33;4.43;;;2.83;;
12556;SDS011;6344;49.932;8.308;2023-12-20T09:35:00;4.17;;;2.80;;
12556;SDS011;6344;49.932;8.308;2023-12-20T09:37:27;4.93;;;3.27;;
12556;SDS011;6344;49.932;8.308;2023-12-20T09:39:54;5.30;;;3.60;;
12556;SDS011;6344;49.932;8.308;2023-12-20T09:42:22;6.00;;;1.73;;
12556;SDS011;6344;49.932;8.308;2023-12-20T09:44:50;3.47;;;2.57;;
12556;SDS011;6344;49.932;8.308;2023-12-20T09:47:17;5.40;;;3.03;;
12556;SDS011;6344;49.932;8.308;2023-12-20T09:49:50;5.70;;;2.23;;
12556;SDS011;6344;49.932;8.308;2023-12-20T09:52:17;5.10;;;1.97;;
12556;SDS011;6344;49.932;8.308;2023-12-20T09:54:44;3.53;;;2.13;;
12556;SDS011;6344;49.932;8.308;2023-12-20T09:57:13;4.97;;;2.80;;
12556;SDS011;6344;49.932;8.308;2023-12-20T09:59:40;3.97;;;3.10;;
12556;SDS011;6344;49.932;8.308;2023-12-20T10:02:07;5.70;;;3.10;;
12556;SDS011;6344;49.932;8.308;2023-12-20T10:04:39;3.13;;;2.30;;
12556;SDS011;6344;49.932;8.308;2023-12-20T10:07:13;3.30;;;2.40;;
12556;SDS011;6344;49.932;8.308;2023-12-20T10:09:40;6.73;;;2.83;;
12556;SDS011;6344;49.932;8.308;2023-12-20T10:12:07;3.20;;;2.30;;
12556;SDS011;6344;49.932;8.308;2023-12-20T10:14:34;2.03;;;1.70;;
12556;SDS011;6344;49.932;8.308;2023-12-20T10:17:02;3.00;;;2.53;;
12556;SDS011;6344;49.932;8.308;2023-12-20T10:19:29;4.87;;;2.90;;
12556;SDS011;6344;49.932;8.308;2023-12-20T10:21:55;7.50;;;3.17;;
12556;SDS011;6344;49.932;8.308;2023-12-20T10:24:26;8.80;;;2.90;;
12556;SDS011;6344;49.932;8.308;2023-12-20T10:27:01;5.57;;;2.83;;
12556;SDS011;6344;49.932;8.308;2023-12-20T10:29:30;6.57;;;3.23;;
12556;SDS011;6344;49.932;8.308;2023-12-20T10:31:58;3.23;;;2.03;;
12556;SDS011;6344;49.932;8.308;2023-12-20T10:34:24;3.80;;;2.87;;
12556;SDS011;6344;49.932;8.308;2023-12-20T10:36:51;4.17;;;2.90;;
12556;SDS011;6344;49.932;8.308;2023-12-20T10:39:18;7.33;;;2.83;;
12556;SDS011;6344;49.932;8.308;2023-12-20T10:41:47;7.60;;;2.50;;
12556;SDS011;6344;49.932;8.308;2023-12-20T10:44:14;3.50;;;2.40;;
12556;SDS011;6344;49.932;8.308;2023-12-20T10:46:41;3.30;;;2.20;;
12556;SDS011;6344;49.932;8.308;2023-12-20T10:49:15;5.73;;;3.57;;
12556;SDS011;6344;49.932;8.308;2023-12-20T10:51:43;7.27;;;2.60;;
12556;SDS011;6344;49.932;8.308;2023-12-20T10:54:11;3.53;;;2.57;;
12556;SDS011;6344;49.932;8.308;2023-12-20T10:56:38;8.00;;;2.80;;
12556;SDS011;6344;49.932;8.308;2023-12-20T10:59:06;4.60;;;2.17;;
12556;SDS011;6344;49.932;8.308;2023-12-20T11:01:35;5.07;;;2.60;;
12556;SDS011;6344;49.932;8.308;2023-12-20T11:04:05;5.27;;;2.97;;
12556;SDS011;6344;49.932;8.308;2023-12-20T11:06:36;5.13;;;2.17;;
12556;SDS011;6344;49.932;8.308;2023-12-20T11:09:10;5.20;;;2.63;;
12556;SDS011;6344;49.932;8.308;2023-12-20T11:11:54;2.60;;;2.00;;
12556;SDS011;6344;49.932;8.308;2023-12-20T11:14:27;7.63;;;3.67;;
12556;SDS011;6344;49.932;8.308;2023-12-20T11:17:06;8.37;;;2.43;;
12556;SDS011;6344;49.932;8.308;2023-12-20T11:19:35;4.70;;;2.20;;
12556;SDS011;6344;49.932;8.308;2023-12-20T11:22:03;2.40;;;2.07;;
12556;SDS011;6344;49.932;8.308;2023-12-20T11:24:30;5.13;;;2.60;;
12556;SDS011;6344;49.932;8.308;2023-12-20T11:26:59;3.30;;;2.50;;
12556;SDS011;6344;49.932;8.308;2023-12-20T11:29:35;4.73;;;2.90;;
12556;SDS011;6344;49.932;8.308;2023-12-20T11:32:03;4.20;;;2.20;;
12556;SDS011;6344;49.932;8.308;2023-12-20T11:34:50;2.57;;;2.27;;
12556;SDS011;6344;49.932;8.308;2023-12-20T11:37:17;4.03;;;2.40;;
12556;SDS011;6344;49.932;8.308;2023-12-20T11:39:53;7.53;;;3.00;;
12556;SDS011;6344;49.932;8.308;2023-12-20T11:42:21;5.13;;;2.83;;
12556;SDS011;6344;49.932;8.308;2023-12-20T11:44:49;7.33;;;2.30;;
12556;SDS011;6344;49.932;8.308;2023-12-20T11:47:17;6.30;;;3.10;;
12556;SDS011;6344;49.932;8.308;2023-12-20T11:49:46;5.73;;;3.17;;
12556;SDS011;6344;49.932;8.308;2023-12-20T11:52:13;2.90;;;2.60;;
12556;SDS011;6344;49.932;8.308;2023-12-20T11:54:40;4.33;;;2.70;;
12556;SDS011;6344;49.932;8.308;2023-12-20T11:57:06;4.93;;;2.30;;
12556;SDS011;6344;49.932;8.308;2023-12-20T11:59:33;6.90;;;2.70;;
12556;SDS011;6344;49.932;8.308;2023-12-20T12:02:01;2.97;;;2.67;;
12556;SDS011;6344;49.932;8.308;2023-12-20T12:04:28;5.57;;;3.33;;
12556;SDS011;6344;49.932;8.308;2023-12-20T12:06:54;6.80;;;3.60;;
12556;SDS011;6344;49.932;8.308;2023-12-20T12:09:21;4.57;;;2.17;;
12556;SDS011;6344;49.932;8.308;2023-12-20T12:11:48;5.17;;;3.13;;
12556;SDS011;6344;49.932;8.308;2023-12-20T12:14:15;3.73;;;2.27;;
12556;SDS011;6344;49.932;8.308;2023-12-20T12:16:42;3.40;;;2.47;;
12556;SDS011;6344;49.932;8.308;2023-12-20T12:19:20;6.53;;;2.13;;
12556;SDS011;6344;49.932;8.308;2023-12-20T12:21:48;4.67;;;3.27;;
12556;SDS011;6344;49.932;8.308;2023-12-20T12:24:15;3.37;;;3.07;;
12556;SDS011;6344;49.932;8.308;2023-12-20T12:26:49;4.20;;;3.10;;
12556;SDS011;6344;49.932;8.308;2023-12-20T12:29:16;7.40;;;2.70;;
12556;SDS011;6344;49.932;8.308;2023-12-20T12:31:42;5.30;;;2.57;;
12556;SDS011;6344;49.932;8.308;2023-12-20T12:34:09;3.53;;;3.10;;
12556;SDS011;6344;49.932;8.308;2023-12-20T12:36:37;4.90;;;3.53;;
12556;SDS011;6344;49.932;8.308;2023-12-20T12:39:05;6.17;;;3.63;;
12556;SDS011;6344;49.932;8.308;2023-12-20T12:41:32;3.07;;;2.77;;
12556;SDS011;6344;49.932;8.308;2023-12-20T12:43:58;4.73;;;2.70;;
12556;SDS011;6344;49.932;8.308;2023-12-20T12:46:25;7.30;;;3.00;;
12556;SDS011;6344;49.932;8.308;2023-12-20T12:48:52;5.60;;;2.70;;
12556;SDS011;6344;49.932;8.308;2023-12-20T12:51:18;5.97;;;3.53;;
12556;SDS011;6344;49.932;8.308;2023-12-20T12:53:46;4.53;;;2.53;;
12556;SDS011;6344;49.932;8.308;2023-12-20T12:56:13;8.50;;;2.57;;
12556;SDS011;6344;49.932;8.308;2023-12-20T12:58:41;5.03;;;2.60;;
12556;SDS011;6344;49.932;8.308;2023-12-20T13:01:08;4.63;;;3.33;;
12556;SDS011;6344;49.932;8.308;2023-12-20T13:03:35;6.47;;;2.90;;
12556;SDS011;6344;49.932;8.308;2023-12-20T13:06:02;4.60;;;2.60;;
12556;SDS011;6344;49.932;8.308;2023-12-20T13:08:30;6.00;;;3.60;;
12556;SDS011;6344;49.932;8.308;2023-12-20T13:10:59;2.63;;;2.43;;
12556;SDS011;6344;49.932;8.308;2023-12-20T13:13:25;7.07;;;3.13;;
12556;SDS011;6344;49.932;8.308;2023-12-20T13:15:52;4.40;;;3.73;;
12556;SDS011;6344;49.932;8.308;2023-12-20T13:18:20;2.83;;;2.50;;
12556;SDS011;6344;49.932;8.308;2023-12-20T13:20:47;2.27;;;2.07;;
12556;SDS011;6344;49.932;8.308;2023-12-20T13:23:13;3.50;;;2.90;;
12556;SDS011;6344;49.932;8.308;2023-12-20T13:25:40;3.57;;;2.40;;
12556;SDS011;6344;49.932;8.308;2023-12-20T13:28:09;4.80;;;2.50;;
12556;SDS011;6344;49.932;8.308;2023-12-20T13:30:35;3.83;;;1.77;;
12556;SDS011;6344;49.932;8.308;2023-12-20T13:33:02;2.53;;;2.33;;
12556;SDS011;6344;49.932;8.308;2023-12-20T13:35:29;3.83;;;2.20;;
12556;SDS011;6344;49.932;8.308;2023-12-20T13:37:55;4.30;;;2.50;;
12556;SDS011;6344;49.932;8.308;2023-12-20T13:40:22;3.80;;;2.20;;
12556;SDS011;6344;49.932;8.308;2023-12-20T13:42:49;3.30;;;2.97;;
12556;SDS011;6344;49.932;8.308;2023-12-20T13:45:17;2.40;;;2.20;;
12556;SDS011;6344;49.932;8.308;2023-12-20T13:47:43;4.00;;;2.27;;
12556;SDS011;6344;49.932;8.308;2023-12-20T13:50:10;2.47;;;2.27;;
12556;SDS011;6344;49.932;8.308;2023-12-20T13:52:37;3.40;;;1.43;;
12556;SDS011;6344;49.932;8.308;2023-12-20T13:55:04;5.10;;;2.17;;
12556;SDS011;6344;49.932;8.308;2023-12-20T13:57:32;2.13;;;1.93;;
12556;SDS011;6344;49.932;8.308;2023-12-20T14:00:02;4.10;;;2.33;;
12556;SDS011;6344;49.932;8.308;2023-12-20T14:02:31;3.90;;;2.37;;
12556;SDS011;6344;49.932;8.308;2023-12-20T14:04:57;3.47;;;1.57;;
12556;SDS011;6344;49.932;8.308;2023-12-20T14:07:24;3.90;;;2.27;;
12556;SDS011;6344;49.932;8.308;2023-12-20T14:09:51;5.47;;;2.37;;
12556;SDS011;6344;49.932;8.308;2023-12-20T14:12:17;2.13;;;1.80;;
12556;SDS011;6344;49.932;8.308;2023-12-20T14:14:45;3.73;;;1.97;;
12556;SDS011;6344;49.932;8.308;2023-12-20T14:17:11;2.90;;;1.87;;
12556;SDS011;6344;49.932;8.308;2023-12-20T14:19:39;2.33;;;2.13;;
12556;SDS011;6344;49.932;8.308;2023-12-20T14:22:06;2.73;;;1.80;;
12556;SDS011;6344;49.932;8.308;2023-12-20T14:24:33;2.40;;;1.90;;
12556;SDS011;6344;49.932;8.308;2023-12-20T14:27:00;3.60;;;2.00;;
12556;SDS011;6344;49.932;8.308;2023-12-20T14:29:27;3.03;;;2.30;;
12556;SDS011;6344;49.932;8.308;2023-12-20T14:31:54;2.43;;;1.77;;
12556;SDS011;6344;49.932;8.308;2023-12-20T14:34:20;2.93;;;2.27;;
12556;SDS011;6344;49.932;8.308;2023-12-20T14:36:50;3.03;;;2.40;;
12556;SDS011;6344;49.932;8.308;2023-12-20T14:39:17;4.37;;;2.37;;
12556;SDS011;6344;49.932;8.308;2023-12-20T14:41:44;5.93;;;2.03;;
12556;SDS011;6344;49.932;8.308;2023-12-20T14:44:10;3.87;;;1.83;;
12556;SDS011;6344;49.932;8.308;2023-12-20T14:46:37;4.30;;;2.10;;
12556;SDS011;6344;49.932;8.308;2023-12-20T14:49:04;4.87;;;2.60;;
12556;SDS011;6344;49.932;8.308;2023-12-20T14:51:31;6.53;;;3.20;;
12556;SDS011;6344;49.932;8.308;2023-12-20T14:54:00;7.10;;;2.50;;
12556;SDS011;6344;49.932;8.308;2023-12-20T14:56:27;3.30;;;2.30;;
12556;SDS011;6344;49.932;8.308;2023-12-20T14:58:53;2.90;;;1.83;;
12556;SDS011;6344;49.932;8.308;2023-12-20T15:01:20;2.03;;;1.73;;